Time;durP1;ratioP1;P1;durP2;ratioP2;P2;SDS_P1;SDS_P2;PMS_P1;PMS_P2;Temp;Humidity;BMP_temperature;BMP_pressure;BME280_temperature;BME280_humidity;BME280_pressure;Samples;Min_cycle;Max_cycle;Signal;HPM_P1;HPM_P2
2022/11/06 00:01:36;;;;;;;6.60;4.20;;;;;;;14.55;50.81;101168.86;106029;1304;21978;-64
2022/11/06 00:04:02;;;;;;;11.00;4.60;;;;;;;14.55;50.83;101170.10;106098;1304;21954;-63
2022/11/06 00:06:47;;;;;;;12.10;4.00;;;;;;;14.54;50.72;101169.58;105998;1304;21962;-63
2022/11/06 00:09:19;;;;;;;8.00;3.70;;;;;;;14.53;50.75;101166.75;106043;1304;21965;-64
2022/11/06 00:11:46;;;;;;;12.80;4.60;;;;;;;14.55;50.73;101159.50;106058;1304;21987;-64
2022/11/06 00:14:14;;;;;;;9.10;4.80;;;;;;;14.63;50.55;101155.81;106041;1304;21964;-63
2022/11/06 00:16:40;;;;;;;12.50;4.90;;;;;;;14.68;50.37;101156.45;106114;1304;23735;-62
2022/11/06 00:19:08;;;;;;;12.40;5.20;;;;;;;14.70;50.41;101157.31;106052;1304;21976;-64
2022/11/06 00:21:35;;;;;;;9.60;5.20;;;;;;;14.71;50.33;101159.60;106040;1304;21962;-65
2022/11/06 00:24:03;;;;;;;10.20;5.50;;;;;;;14.75;50.45;101160.95;105326;1304;1003079;-64
2022/11/06 00:26:30;;;;;;;8.30;4.80;;;;;;;14.80;50.38;101161.05;105791;1306;21980;-63
2022/11/06 00:28:56;;;;;;;7.60;4.80;;;;;;;14.80;50.37;101159.61;106004;1304;21960;-64
2022/11/06 00:31:23;;;;;;;11.50;5.20;;;;;;;14.74;50.59;101159.91;105985;1304;21978;-65
2022/11/06 00:33:49;;;;;;;12.00;5.70;;;;;;;14.76;50.54;101156.35;106012;1304;22001;-64
2022/11/06 00:36:17;;;;;;;13.00;6.00;;;;;;;14.83;50.44;101153.55;106031;1304;22432;-65
2022/11/06 00:38:43;;;;;;;9.50;5.70;;;;;;;14.85;50.34;101154.58;106078;1301;22029;-64
2022/11/06 00:41:15;;;;;;;10.00;5.50;;;;;;;14.86;50.33;101151.92;106007;1304;21957;-64
2022/11/06 00:43:42;;;;;;;10.40;6.20;;;;;;;14.86;50.34;101150.16;106089;1304;21958;-63
2022/11/06 00:46:09;;;;;;;11.80;5.40;;;;;;;14.85;50.22;101149.11;106047;1304;21954;-63
2022/11/06 00:48:35;;;;;;;12.80;5.30;;;;;;;14.84;50.23;101147.19;106058;1304;21975;-64
2022/11/06 00:51:06;;;;;;;9.30;4.60;;;;;;;14.84;50.26;101145.77;106039;1304;21968;-62
2022/11/06 00:53:33;;;;;;;10.50;5.90;;;;;;;14.83;50.29;101148.45;106061;1304;22004;-63
2022/11/06 00:56:06;;;;;;;11.40;5.20;;;;;;;14.82;50.31;101147.22;106059;1301;21969;-63
2022/11/06 00:58:32;;;;;;;9.20;6.10;;;;;;;14.82;50.31;101142.11;107293;1304;24356;-64
2022/11/06 01:01:05;;;;;;;9.20;5.30;;;;;;;14.80;50.24;101141.79;105269;1304;1002567;-64
2022/11/06 01:03:31;;;;;;;9.30;5.30;;;;;;;14.79;50.29;101141.09;107899;1304;21789;-64
2022/11/06 01:06:10;;;;;;;7.70;5.10;;;;;;;14.76;50.23;101143.27;106807;1304;21954;-64
2022/11/06 01:08:36;;;;;;;9.30;5.00;;;;;;;14.73;50.22;101144.92;107934;1304;22047;-64
2022/11/06 01:11:22;;;;;;;9.00;4.50;;;;;;;14.71;50.28;101142.13;106340;1302;22023;-64
2022/11/06 01:13:50;;;;;;;9.90;5.20;;;;;;;14.69;50.29;101145.14;106018;1304;21977;-63
2022/11/06 01:16:18;;;;;;;8.10;5.20;;;;;;;14.69;50.24;101146.75;106068;1304;21985;-63
2022/11/06 01:18:44;;;;;;;11.40;5.60;;;;;;;14.67;50.22;101141.98;106029;1304;21970;-64
2022/11/06 01:21:16;;;;;;;8.50;5.40;;;;;;;14.66;50.24;101144.47;106124;1304;21957;-65
2022/11/06 01:23:41;;;;;;;7.30;5.20;;;;;;;14.64;50.20;101142.20;106057;1304;22017;-65
2022/11/06 01:26:09;;;;;;;9.00;5.60;;;;;;;14.62;50.17;101141.16;106030;1304;21977;-65
2022/11/06 01:28:36;;;;;;;13.80;5.40;;;;;;;14.60;50.14;101132.55;105992;1304;21961;-65
2022/11/06 01:31:07;;;;;;;6.70;4.40;;;;;;;14.57;50.12;101130.67;105961;1304;21974;-64
2022/11/06 01:33:32;;;;;;;10.60;5.10;;;;;;;14.53;50.19;101134.79;106046;1305;21960;-63
2022/11/06 01:35:58;;;;;;;10.40;5.20;;;;;;;14.50;50.20;101134.14;106051;1304;21973;-64
2022/11/06 01:38:24;;;;;;;9.50;5.30;;;;;;;14.48;50.26;101140.89;106069;1304;21960;-64
2022/11/06 01:40:49;;;;;;;10.60;5.70;;;;;;;14.46;50.30;101143.56;106101;1304;21959;-64
2022/11/06 01:43:18;;;;;;;10.80;5.50;;;;;;;14.45;50.20;101143.41;105993;1304;21963;-64
2022/11/06 01:45:45;;;;;;;9.80;5.90;;;;;;;14.42;50.20;101143.61;106062;1302;21960;-63
2022/11/06 01:48:11;;;;;;;9.50;6.30;;;;;;;14.40;50.20;101141.71;106059;1304;21957;-63
2022/11/06 01:50:40;;;;;;;7.30;5.10;;;;;;;14.36;50.15;101138.97;106025;1304;23077;-63
2022/11/06 01:53:05;;;;;;;9.00;4.80;;;;;;;14.32;50.15;101142.55;106160;1302;21964;-63
2022/11/06 01:55:35;;;;;;;10.10;5.30;;;;;;;14.29;50.15;101144.71;105987;1304;21966;-62
2022/11/06 01:58:01;;;;;;;8.60;5.50;;;;;;;14.26;50.30;101144.58;106002;1304;21962;-63
2022/11/06 02:00:29;;;;;;;11.40;6.30;;;;;;;14.25;50.32;101145.48;106071;1304;21958;-63
2022/11/06 02:02:55;;;;;;;12.60;6.00;;;;;;;14.23;50.23;101142.67;105841;1304;22001;-64
2022/11/06 02:05:21;;;;;;;11.80;6.80;;;;;;;14.21;50.34;101139.00;105738;1306;21956;-63
2022/11/06 02:07:47;;;;;;;10.00;5.60;;;;;;;14.20;50.26;101141.85;106382;1304;21796;-62
2022/11/06 02:10:13;;;;;;;10.70;5.60;;;;;;;14.21;50.21;101147.48;107842;1306;21770;-66
2022/11/06 02:12:57;;;;;;;11.10;6.10;;;;;;;14.21;50.19;101147.66;107940;1304;22344;-65
2022/11/06 02:15:32;;;;;;;9.60;5.10;;;;;;;14.20;50.16;101147.48;107958;1304;21882;-66
2022/11/06 02:18:44;;;;;;;12.70;5.80;;;;;;;14.20;49.99;101145.38;106725;1304;24522;-65
2022/11/06 02:21:39;;;;;;;15.50;5.70;;;;;;;14.18;50.16;101144.69;105962;1304;21962;-63
2022/11/06 02:24:39;;;;;;;12.20;6.00;;;;;;;14.16;50.16;101144.55;105832;1302;21974;-65
2022/11/06 02:27:11;;;;;;;9.40;6.20;;;;;;;14.16;50.15;101147.20;106093;1305;21961;-64
2022/11/06 02:30:07;;;;;;;9.20;6.30;;;;;;;14.13;50.31;101148.13;105988;1299;22007;-63
2022/11/06 02:32:44;;;;;;;7.90;5.30;;;;;;;14.11;50.26;101147.81;105968;1306;24391;-65
2022/11/06 02:35:18;;;;;;;12.80;4.90;;;;;;;14.10;50.25;101149.23;105845;1298;21972;-64
2022/11/06 02:37:43;;;;;;;10.70;4.60;;;;;;;14.08;50.18;101150.67;105777;1306;21976;-65
2022/11/06 02:40:09;;;;;;;8.20;5.40;;;;;;;14.06;50.16;101154.59;105777;1306;21967;-65
2022/11/06 02:42:37;;;;;;;9.90;5.70;;;;;;;14.06;50.19;101152.64;105718;1305;22017;-65
2022/11/06 02:45:04;;;;;;;9.10;5.90;;;;;;;14.05;50.31;101155.13;105765;1306;21975;-65
2022/11/06 02:47:30;;;;;;;12.50;6.30;;;;;;;14.05;50.26;101160.77;106070;1304;21960;-64
2022/11/06 02:50:02;;;;;;;9.90;6.20;;;;;;;14.03;50.18;101163.63;105999;1304;22008;-64
2022/11/06 02:52:36;;;;;;;11.00;6.00;;;;;;;14.02;50.17;101165.41;106010;1304;23104;-65
2022/11/06 02:55:11;;;;;;;11.50;6.10;;;;;;;14.01;50.23;101173.18;105765;1302;21959;-65
2022/11/06 02:57:37;;;;;;;9.10;5.80;;;;;;;13.98;50.27;101178.52;106033;1304;22017;-65
2022/11/06 03:00:06;;;;;;;11.30;6.10;;;;;;;13.96;50.21;101180.13;106097;1304;21968;-64
2022/11/06 03:02:36;;;;;;;9.00;6.10;;;;;;;13.96;50.23;101178.20;106063;1297;22137;-65
2022/11/06 03:05:10;;;;;;;14.50;6.80;;;;;;;13.96;50.35;101176.95;106167;1304;24395;-65
2022/11/06 03:07:38;;;;;;;10.90;6.50;;;;;;;13.95;50.29;101176.61;105960;1304;21959;-65
2022/11/06 03:10:05;;;;;;;13.60;6.70;;;;;;;13.93;50.24;101176.11;105757;1305;21965;-65
2022/11/06 03:12:57;;;;;;;11.50;7.30;;;;;;;13.93;50.28;101176.99;106019;1304;21977;-64
2022/11/06 03:15:26;;;;;;;15.10;6.60;;;;;;;13.90;50.31;101178.62;105959;1304;21968;-64
2022/11/06 03:18:05;;;;;;;10.20;5.70;;;;;;;13.88;50.30;101181.66;106312;1304;21961;-65
2022/11/06 03:21:00;;;;;;;13.00;6.20;;;;;;;13.87;50.29;101186.96;106030;1301;21958;-65
2022/11/06 03:23:31;;;;;;;14.50;6.60;;;;;;;13.87;50.26;101187.48;105911;1304;21961;-65
2022/11/06 03:26:04;;;;;;;;;;;;;;;13.86;50.30;101190.31;105735;1306;24309;-65
2022/11/06 03:28:32;;;;;;;16.10;7.10;;;;;;;13.85;50.28;101192.80;105968;1297;21964;-65
2022/11/06 03:31:01;;;;;;;14.30;6.80;;;;;;;13.84;50.28;101196.70;106012;1305;22012;-65
2022/11/06 03:33:37;;;;;;;10.30;6.70;;;;;;;13.82;50.36;101196.90;106041;1305;22203;-66
2022/11/06 03:36:09;;;;;;;10.30;7.80;;;;;;;13.79;50.26;101193.92;105965;1305;22418;-66
2022/11/06 03:38:50;;;;;;;12.00;6.10;;;;;;;13.78;50.32;101194.83;105742;1305;22018;-64
2022/11/06 03:41:19;;;;;;;10.90;7.10;;;;;;;13.74;50.36;101196.28;106047;1304;21955;-65
2022/11/06 03:43:46;;;;;;;10.80;6.90;;;;;;;13.73;50.39;101194.70;105972;1304;21968;-65
2022/11/06 03:46:15;;;;;;;12.30;7.20;;;;;;;13.72;50.27;101194.02;104577;1304;1002348;-64
2022/11/06 03:48:49;;;;;;;15.00;8.30;;;;;;;13.70;50.37;101195.29;106023;1306;21968;-65
2022/11/06 03:51:18;;;;;;;13.50;7.40;;;;;;;13.67;50.26;101195.50;105821;1304;21963;-66
2022/11/06 03:53:59;;;;;;;16.70;8.70;;;;;;;13.65;50.22;101198.52;106048;1295;21968;-63
2022/11/06 03:56:28;;;;;;;;;;;;;;;13.62;50.31;101197.31;106067;1304;21947;-65
2022/11/06 03:58:54;;;;;;;15.90;7.20;;;;;;;13.59;50.44;101194.89;105976;1301;21986;-65
2022/11/06 04:01:24;;;;;;;17.50;7.60;;;;;;;13.57;50.37;101198.09;105829;1305;22436;-64
2022/11/06 04:03:55;;;;;;;12.10;7.50;;;;;;;13.55;50.40;101202.70;105862;1303;21974;-64
2022/11/06 04:06:27;;;;;;;15.00;8.10;;;;;;;13.54;50.45;101209.76;106033;1304;21957;-65
2022/11/06 04:14:30;;;;;;;12.60;8.80;;;;;;;13.47;50.50;101220.92;105627;1306;21962;-65
2022/11/06 04:16:58;;;;;;;17.20;7.90;;;;;;;13.43;50.46;101222.04;106072;1304;21967;-65
2022/11/06 04:19:25;;;;;;;14.70;8.00;;;;;;;13.40;50.38;101225.92;105890;1305;22008;-66
2022/11/06 04:22:24;;;;;;;18.10;9.60;;;;;;;13.35;50.44;101219.44;106561;1304;21865;-66
2022/11/06 04:28:28;;;;;;;14.30;9.10;;;;;;;13.25;50.37;101231.54;105632;1306;21957;-65
2022/11/06 04:31:12;;;;;;;20.20;10.40;;;;;;;13.20;50.55;101234.05;105902;1304;21967;-64
2022/11/06 04:33:49;;;;;;;16.00;10.80;;;;;;;13.14;50.64;101234.63;106040;1301;21972;-67
2022/11/06 04:36:37;;;;;;;14.90;8.50;;;;;;;13.08;50.57;101237.85;106023;1304;21966;-65
2022/11/06 04:39:15;;;;;;;16.10;8.70;;;;;;;13.04;50.66;101239.64;105776;1306;21971;-64
2022/11/06 04:41:50;;;;;;;15.90;8.90;;;;;;;13.00;50.70;101236.34;106013;1304;22876;-65
2022/11/06 04:44:29;;;;;;;17.10;10.00;;;;;;;12.97;50.79;101235.14;105738;1304;21961;-64
2022/11/06 04:46:58;;;;;;;20.20;10.30;;;;;;;12.96;50.74;101237.96;106089;1302;21967;-64
2022/11/06 04:49:23;;;;;;;17.30;10.70;;;;;;;12.95;50.81;101236.91;105805;1305;21963;-65
2022/11/06 04:51:49;;;;;;;19.90;10.90;;;;;;;12.93;50.77;101235.87;105970;1304;22424;-64
2022/11/06 04:54:15;;;;;;;19.40;10.10;;;;;;;12.91;50.69;101239.06;105661;1306;21965;-63
2022/11/06 04:56:41;;;;;;;32.70;12.60;;;;;;;12.91;50.82;101236.95;105996;1304;21972;-64
2022/11/06 04:59:08;;;;;;;25.60;11.10;;;;;;;12.89;51.02;101236.59;105970;1304;21974;-66
2022/11/06 05:01:35;;;;;;;19.80;10.70;;;;;;;12.88;51.10;101241.17;105999;1304;23178;-64
2022/11/06 05:04:01;;;;;;;30.10;12.50;;;;;;;12.87;51.03;101246.65;105976;1304;22429;-66
2022/11/06 05:06:27;;;;;;;33.00;12.20;;;;;;;12.88;51.09;101249.64;106025;1304;21968;-64
2022/11/06 05:08:54;;;;;;;42.10;13.50;;;;;;;12.91;50.96;101258.25;105988;1304;21955;-64
2022/11/06 05:11:20;;;;;;;36.30;13.30;;;;;;;12.92;51.14;101259.48;105985;1304;21959;-64
2022/11/06 05:13:47;;;;;;;44.10;12.90;;;;;;;12.93;51.16;101263.52;105968;1304;21965;-65
2022/11/06 05:16:12;;;;;;;31.10;11.70;;;;;;;12.94;51.13;101262.64;105952;1304;21976;-64
2022/11/06 05:18:40;;;;;;;18.20;10.50;;;;;;;12.97;50.96;101266.48;106037;1304;21964;-67
2022/11/06 05:23:57;;;;;;;18.70;12.00;;;;;;;13.02;51.27;101271.21;106037;1304;21970;-64
2022/11/06 05:26:24;;;;;;;21.10;12.70;;;;;;;13.03;51.26;101271.73;105993;1304;22005;-63
2022/11/06 05:28:50;;;;;;;16.40;11.60;;;;;;;13.05;51.20;101275.41;106049;1304;21983;-65
2022/11/06 05:31:16;;;;;;;18.50;11.80;;;;;;;13.06;51.24;101276.63;106078;1304;21956;-66
2022/11/06 05:33:42;;;;;;;14.50;11.80;;;;;;;13.07;51.35;101282.95;105963;1304;21965;-65
2022/11/06 05:36:08;;;;;;;18.00;11.40;;;;;;;13.06;51.41;101287.90;106008;1304;21953;-64
2022/11/06 05:38:34;;;;;;;19.30;11.60;;;;;;;13.05;51.39;101289.85;106074;1304;21985;-64
2022/11/06 05:41:01;;;;;;;17.80;12.40;;;;;;;13.04;51.36;101287.04;106065;1304;21943;-64
2022/11/06 05:43:26;;;;;;;19.70;11.70;;;;;;;13.03;51.43;101287.39;105981;1296;21973;-63
2022/11/06 05:45:52;;;;;;;17.40;12.20;;;;;;;13.03;51.52;101290.55;106033;1304;21945;-62
2022/11/06 05:48:18;;;;;;;16.60;11.90;;;;;;;13.04;51.51;101294.96;104478;1304;1002497;-63
2022/11/06 05:50:44;;;;;;;17.90;12.10;;;;;;;13.03;51.40;101295.33;105948;1305;22008;-64
2022/11/06 05:53:10;;;;;;;15.40;11.20;;;;;;;13.02;51.58;101294.98;106035;1296;21951;-65
2022/11/06 05:55:36;;;;;;;16.60;11.00;;;;;;;13.04;51.60;101294.80;106092;1304;21978;-66
2022/11/06 05:58:01;;;;;;;21.90;13.30;;;;;;;13.05;51.52;101298.48;105909;1304;21994;-64
2022/11/06 06:00:27;;;;;;;17.30;11.80;;;;;;;13.08;51.51;101299.34;105855;1304;21998;-63
2022/11/06 06:02:53;;;;;;;16.00;11.80;;;;;;;13.08;51.66;101299.34;105929;1301;21960;-63
2022/11/06 06:05:19;;;;;;;16.70;11.40;;;;;;;13.10;51.72;101301.97;105934;1304;21958;-62
2022/11/06 06:07:45;;;;;;;15.00;11.20;;;;;;;13.10;51.68;101307.42;105882;1302;21957;-62
2022/11/06 06:10:11;;;;;;;15.60;11.20;;;;;;;13.12;51.58;101310.94;105238;1305;1002250;-63
2022/11/06 06:12:38;;;;;;;16.00;11.50;;;;;;;13.13;51.68;101310.05;105650;1297;22026;-63
2022/11/06 06:15:06;;;;;;;16.20;12.20;;;;;;;13.12;51.67;101308.47;105909;1305;21953;-63
2022/11/06 06:17:32;;;;;;;18.80;12.20;;;;;;;13.12;51.61;101311.83;106016;1305;21971;-63
2022/11/06 06:19:58;;;;;;;17.10;12.10;;;;;;;13.13;51.73;101314.29;105895;1305;21974;-63
2022/11/06 06:22:26;;;;;;;18.90;12.10;;;;;;;13.12;51.60;101318.52;105984;1301;21958;-62
2022/11/06 06:24:55;;;;;;;19.40;11.80;;;;;;;13.14;51.73;101324.86;105933;1304;21974;-64
2022/11/06 06:27:21;;;;;;;15.60;11.40;;;;;;;13.16;51.62;101327.65;105740;1306;21973;-64
2022/11/06 06:29:47;;;;;;;19.30;13.00;;;;;;;13.17;51.66;101330.98;105920;1304;21964;-63
2022/11/06 06:32:14;;;;;;;17.60;12.40;;;;;;;13.18;51.76;101335.92;105607;1304;432560;-65
2022/11/06 06:34:40;;;;;;;16.70;12.20;;;;;;;13.18;51.76;101331.52;105956;1304;21970;-62
2022/11/06 06:37:06;;;;;;;17.40;11.30;;;;;;;13.19;51.82;101335.39;106036;1304;21975;-65
2022/11/06 06:39:32;;;;;;;19.50;11.80;;;;;;;13.20;51.75;101332.38;105647;1306;21969;-66
2022/11/06 06:41:58;;;;;;;16.40;11.30;;;;;;;13.23;51.75;101329.18;106027;1304;21977;-65
2022/11/06 06:44:24;;;;;;;19.60;13.20;;;;;;;13.25;51.90;101327.92;105936;1304;21980;-62
2022/11/06 06:46:49;;;;;;;18.90;13.40;;;;;;;13.28;51.92;101326.84;105935;1304;21957;-65
2022/11/06 06:49:15;;;;;;;25.90;12.90;;;;;;;13.30;51.97;101333.70;105900;1304;21961;-64
2022/11/06 06:51:41;;;;;;;19.00;13.40;;;;;;;13.32;51.81;101336.33;105891;1304;21958;-64
2022/11/06 06:54:07;;;;;;;16.70;11.40;;;;;;;13.34;52.02;101339.66;105932;1304;21964;-65
2022/11/06 06:56:34;;;;;;;19.20;12.00;;;;;;;13.37;51.85;101336.82;107568;1304;21957;-63
2022/11/06 06:58:59;;;;;;;27.50;12.80;;;;;;;13.41;51.89;101336.29;105984;1304;21979;-61
2022/11/06 07:01:26;;;;;;;18.80;12.50;;;;;;;13.43;52.06;101334.70;106039;1304;21965;-63
2022/11/06 07:03:51;;;;;;;31.00;14.00;;;;;;;13.46;51.93;101339.07;106004;1304;21966;-63
2022/11/06 07:06:18;;;;;;;22.00;13.90;;;;;;;13.49;51.96;101340.27;106001;1304;21962;-63
2022/11/06 07:08:44;;;;;;;17.80;11.90;;;;;;;13.50;51.92;101342.37;105913;1304;21950;-65
2022/11/06 07:11:11;;;;;;;17.30;11.80;;;;;;;13.52;51.94;101340.42;105954;1304;24399;-61
2022/11/06 07:13:39;;;;;;;19.60;12.70;;;;;;;13.53;51.90;101343.95;106038;1304;23633;-64
2022/11/06 07:16:07;;;;;;;22.90;13.70;;;;;;;13.53;52.16;101342.88;106068;1304;21967;-62
2022/11/06 07:18:33;;;;;;;20.30;13.10;;;;;;;13.54;51.98;101339.35;106013;1304;21975;-63
2022/11/06 07:21:02;;;;;;;26.40;13.10;;;;;;;13.55;51.90;101339.52;105988;1304;21975;-62
2022/11/06 07:23:28;;;;;;;21.00;12.90;;;;;;;13.55;52.04;101335.45;105913;1304;21968;-62
2022/11/06 07:25:55;;;;;;;21.90;12.90;;;;;;;13.58;52.26;101339.48;105951;1304;21969;-62
2022/11/06 07:28:20;;;;;;;20.80;13.20;;;;;;;13.61;52.16;101338.77;105967;1304;21973;-62
2022/11/06 07:30:46;;;;;;;21.70;14.10;;;;;;;13.60;52.27;101338.77;106014;1304;21959;-61
2022/11/06 07:33:12;;;;;;;23.50;14.10;;;;;;;13.59;52.38;101338.42;106036;1304;21975;-63
2022/11/06 07:35:38;;;;;;;19.40;13.50;;;;;;;13.58;52.27;101335.26;106011;1304;21962;-61
2022/11/06 07:38:05;;;;;;;21.40;12.60;;;;;;;13.55;52.37;101334.93;106010;1304;21965;-62
2022/11/06 07:40:34;;;;;;;18.60;13.20;;;;;;;13.57;52.41;101331.91;106099;1304;21969;-61
2022/11/06 07:43:08;;;;;;;24.60;14.80;;;;;;;13.61;52.43;101331.53;106156;1304;23639;-64
2022/11/06 07:45:34;;;;;;;23.00;13.70;;;;;;;13.64;52.33;101330.10;105995;1304;21967;-61
2022/11/06 07:48:00;;;;;;;23.60;15.30;;;;;;;13.67;52.30;101329.17;106000;1304;21963;-66
2022/11/06 07:50:26;;;;;;;23.50;14.30;;;;;;;13.67;52.19;101331.48;106091;1303;21969;-61
2022/11/06 07:52:51;;;;;;;23.50;13.30;;;;;;;13.67;52.31;101333.42;105748;1304;21957;-61
2022/11/06 07:55:17;;;;;;;19.80;13.50;;;;;;;13.68;52.27;101334.63;106008;1304;21957;-61
2022/11/06 07:57:44;;;;;;;20.70;13.60;;;;;;;13.71;52.32;101336.00;105955;1304;21965;-61
2022/11/06 08:00:10;;;;;;;19.90;14.60;;;;;;;13.76;52.33;101335.42;106009;1304;22005;-63
2022/11/06 08:02:36;;;;;;;25.40;15.80;;;;;;;13.78;52.41;101344.41;106140;1303;21961;-62
2022/11/06 08:05:03;;;;;;;22.60;14.40;;;;;;;13.79;52.28;101350.58;106046;1304;21967;-65
2022/11/06 08:07:29;;;;;;;38.00;17.20;;;;;;;13.80;52.38;101348.98;106005;1304;21962;-64
2022/11/06 08:09:55;;;;;;;23.40;15.80;;;;;;;13.82;52.38;101349.49;106002;1304;21987;-62
2022/11/06 08:12:22;;;;;;;23.50;16.10;;;;;;;13.85;52.42;101352.29;105986;1304;21962;-61
2022/11/06 08:14:49;;;;;;;26.40;16.90;;;;;;;13.87;52.42;101353.67;105921;1304;21977;-62
2022/11/06 08:17:17;;;;;;;29.20;17.20;;;;;;;13.88;52.34;101352.79;106011;1296;21975;-62
2022/11/06 08:19:45;;;;;;;30.60;16.60;;;;;;;13.89;52.39;101353.83;105971;1304;22008;-62
2022/11/06 08:22:12;;;;;;;24.00;15.70;;;;;;;13.90;52.41;101355.05;106219;1303;21967;-62
2022/11/06 08:24:39;;;;;;;29.90;16.20;;;;;;;13.92;52.43;101351.31;105997;1304;24387;-65
2022/11/06 08:27:07;;;;;;;23.80;15.30;;;;;;;13.94;52.50;101353.59;106088;1304;21984;-62
2022/11/06 08:29:33;;;;;;;24.70;17.00;;;;;;;13.96;52.36;101352.86;105940;1304;21982;-61
2022/11/06 08:31:59;;;;;;;28.20;17.40;;;;;;;13.97;52.40;101355.15;105968;1304;21954;-64
2022/11/06 08:34:27;;;;;;;27.00;15.30;;;;;;;13.97;52.41;101353.38;105972;1304;21956;-62
2022/11/06 08:36:53;;;;;;;24.50;14.80;;;;;;;13.96;52.53;101354.98;105893;1304;22154;-63
2022/11/06 08:39:20;;;;;;;24.00;15.40;;;;;;;13.96;52.55;101357.98;106030;1301;21975;-64
2022/11/06 08:41:47;;;;;;;24.00;15.90;;;;;;;13.95;52.49;101360.81;106225;1304;23880;-62
2022/11/06 08:44:14;;;;;;;25.20;16.90;;;;;;;13.96;52.39;101363.63;105938;1304;22046;-61
2022/11/06 08:46:40;;;;;;;28.00;16.30;;;;;;;13.97;52.36;101362.56;105999;1301;22025;-63
2022/11/06 08:49:07;;;;;;;24.30;15.70;;;;;;;13.98;52.35;101363.09;105810;1306;21962;-65
2022/11/06 08:51:32;;;;;;;26.80;16.30;;;;;;;13.98;52.40;101367.84;106122;1304;21976;-61
2022/11/06 08:53:58;;;;;;;24.20;14.80;;;;;;;13.97;52.50;101367.33;105904;1304;21964;-62
2022/11/06 08:56:24;;;;;;;27.80;16.00;;;;;;;13.96;52.38;101363.63;105983;1304;22008;-64
2022/11/06 08:58:49;;;;;;;27.10;17.00;;;;;;;13.94;52.40;101364.34;105990;1298;22007;-63
2022/11/06 09:01:15;;;;;;;24.50;17.20;;;;;;;13.95;52.52;101363.28;105960;1304;21982;-63
2022/11/06 09:03:41;;;;;;;22.80;15.60;;;;;;;13.96;52.45;101364.67;106117;1302;21982;-63
2022/11/06 09:06:07;;;;;;;24.30;15.90;;;;;;;13.98;52.59;101367.50;105943;1304;23709;-62
2022/11/06 09:08:33;;;;;;;23.20;15.50;;;;;;;13.99;52.51;101364.30;106004;1304;21974;-63
2022/11/06 09:11:06;;;;;;;24.20;16.20;;;;;;;13.99;52.52;101365.36;105930;1304;21972;-66
2022/11/06 09:13:33;;;;;;;26.20;17.30;;;;;;;14.01;52.45;101364.63;105961;1304;21961;-64
2022/11/06 09:15:59;;;;;;;23.20;16.00;;;;;;;14.03;52.50;101364.61;105960;1303;21970;-64
2022/11/06 09:18:27;;;;;;;24.90;15.60;;;;;;;14.03;52.41;101362.67;106041;1304;21972;-65
2022/11/06 09:20:54;;;;;;;30.90;16.80;;;;;;;14.02;52.48;101357.91;105909;1304;21966;-64
2022/11/06 09:23:21;;;;;;;29.60;15.50;;;;;;;14.03;52.70;101354.02;105989;1304;21979;-63
2022/11/06 09:25:47;;;;;;;90.30;55.20;;;;;;;14.06;52.74;101357.88;105738;1306;21984;-62
2022/11/06 09:28:12;;;;;;;46.00;29.40;;;;;;;14.08;52.81;101356.63;105801;1304;21972;-64
2022/11/06 09:30:38;;;;;;;33.20;19.00;;;;;;;14.12;52.87;101360.45;105929;1304;21972;-62
2022/11/06 09:33:05;;;;;;;29.90;15.80;;;;;;;14.14;52.66;101360.95;105996;1304;21961;-66
2022/11/06 09:35:32;;;;;;;27.00;16.50;;;;;;;14.18;52.64;101357.04;105933;1304;21967;-62
2022/11/06 09:38:02;;;;;;;35.00;21.50;;;;;;;14.22;52.75;101362.10;106064;1305;21960;-65
2022/11/06 09:40:53;;;;;;;33.40;17.90;;;;;;;14.26;52.77;101359.95;105948;1304;21985;-62
2022/11/06 09:43:27;;;;;;;28.30;17.50;;;;;;;14.29;52.84;101358.33;105882;1305;22017;-61
2022/11/06 09:45:53;;;;;;;29.10;17.90;;;;;;;14.30;52.77;101357.25;105946;1304;22013;-61
2022/11/06 09:48:30;;;;;;;29.00;18.00;;;;;;;14.30;52.78;101356.71;105862;1304;21985;-63
2022/11/06 09:51:05;;;;;;;24.90;16.10;;;;;;;14.31;52.85;101354.95;105997;1304;21954;-61
2022/11/06 09:53:40;;;;;;;24.40;16.00;;;;;;;14.33;52.79;101352.63;105947;1304;21977;-61
2022/11/06 09:56:09;;;;;;;29.90;16.30;;;;;;;14.34;52.89;101353.14;105992;1305;24104;-61
2022/11/06 09:58:36;;;;;;;26.70;18.10;;;;;;;14.35;53.01;101355.23;105840;1301;21956;-64
2022/11/06 10:01:26;;;;;;;36.70;17.60;;;;;;;14.38;52.93;101348.48;105918;1304;23893;-62
2022/11/06 10:03:54;;;;;;;25.50;16.20;;;;;;;14.41;52.81;101344.20;105875;1305;22773;-62
2022/11/06 10:06:21;;;;;;;32.40;17.00;;;;;;;14.43;52.91;101346.30;105906;1297;21968;-64
2022/11/06 10:08:46;;;;;;;26.80;16.20;;;;;;;14.46;52.96;101346.80;107247;1304;21971;-62
2022/11/06 10:11:12;;;;;;;27.00;17.00;;;;;;;14.50;52.88;101346.23;105630;1303;22236;-62
2022/11/06 10:14:00;;;;;;;66.90;20.60;;;;;;;14.53;53.04;101343.71;107907;1304;21932;-62
2022/11/06 10:16:30;;;;;;;41.80;19.20;;;;;;;14.63;53.43;101340.92;107904;1304;21886;-63
2022/11/06 10:19:14;;;;;;;72.60;19.10;;;;;;;14.81;53.25;101335.23;107910;1304;21971;-64
2022/11/06 10:21:47;;;;;;;74.50;19.20;;;;;;;14.88;52.88;101335.48;107917;1305;21911;-66
2022/11/06 10:24:27;;;;;;;35.10;16.70;;;;;;;14.89;52.76;101335.83;107191;1300;21971;-63
2022/11/06 10:26:56;;;;;;;25.90;17.20;;;;;;;14.92;52.80;101334.38;105903;1304;21963;-65
2022/11/06 10:29:43;;;;;;;57.60;19.90;;;;;;;14.95;52.72;101332.02;105942;1305;21978;-66
2022/11/06 10:32:34;;;;;;;36.00;16.80;;;;;;;14.95;52.71;101332.73;105930;1304;21962;-62
2022/11/06 10:35:19;;;;;;;26.10;15.20;;;;;;;14.96;52.74;101330.24;105771;1306;21963;-65
2022/11/06 10:37:56;;;;;;;22.30;15.70;;;;;;;15.01;52.79;101322.21;105998;1304;21981;-64
2022/11/06 10:40:24;;;;;;;28.50;16.60;;;;;;;15.07;52.76;101322.30;105858;1302;21975;-64
2022/11/06 10:43:16;;;;;;;27.10;17.70;;;;;;;15.09;52.86;101325.79;105959;1304;23786;-61
2022/11/06 10:45:44;;;;;;;24.00;15.80;;;;;;;15.13;52.98;101325.90;105996;1304;21965;-63
2022/11/06 10:48:21;;;;;;;23.10;15.60;;;;;;;15.20;53.01;101325.63;105985;1301;21978;-62
2022/11/06 10:51:26;;;;;;;21.60;14.80;;;;;;;15.26;52.99;101320.21;105958;1304;21974;-61
2022/11/06 10:54:40;;;;;;;21.50;15.50;;;;;;;15.34;52.90;101315.66;105740;1306;21973;-61
2022/11/06 10:57:20;;;;;;;22.50;13.40;;;;;;;15.42;52.75;101310.23;105706;1306;24339;-60
2022/11/06 10:59:48;;;;;;;20.30;13.10;;;;;;;15.44;52.51;101307.89;105777;1306;21959;-60
2022/11/06 11:02:25;;;;;;;15.40;10.20;;;;;;;15.39;52.30;101309.75;105060;1296;1003205;-60
2022/11/06 11:04:52;;;;;;;13.40;9.20;;;;;;;15.39;52.11;101311.16;105995;1304;21970;-63
2022/11/06 11:07:18;;;;;;;13.30;8.20;;;;;;;15.37;52.01;101309.79;106032;1304;21960;-61
2022/11/06 11:09:45;;;;;;;13.50;9.20;;;;;;;15.32;52.11;101306.14;106108;1304;21967;-63
2022/11/06 11:12:27;;;;;;;12.80;8.80;;;;;;;15.30;52.22;101304.75;105939;1304;21970;-63
2022/11/06 11:15:11;;;;;;;12.70;8.80;;;;;;;15.30;52.17;101304.58;105897;1304;21976;-62
2022/11/06 11:17:39;;;;;;;13.20;8.60;;;;;;;15.32;52.16;101304.36;106133;1303;21963;-63
2022/11/06 11:20:28;;;;;;;12.20;8.10;;;;;;;15.33;52.10;101303.13;106592;1291;22206;-63
2022/11/06 11:23:04;;;;;;;13.10;8.50;;;;;;;15.30;52.09;101303.70;105945;1304;22025;-62
2022/11/06 11:25:31;;;;;;;13.90;9.20;;;;;;;15.29;52.01;101308.31;105995;1304;21971;-63
2022/11/06 11:27:56;;;;;;;15.10;9.10;;;;;;;15.27;52.00;101305.52;105788;1306;21976;-63
2022/11/06 11:30:25;;;;;;;17.30;9.50;;;;;;;15.24;52.04;101301.67;106046;1304;21977;-68
2022/11/06 11:32:52;;;;;;;14.00;8.20;;;;;;;15.24;52.05;101302.04;106100;1305;24116;-62